sensor_id;sensor_type;location;lat;lon;timestamp;temperature;humidity
37528;DHT22;23372;52.050;4.810;2023-05-23T00:00:41;14.00;99.90
37528;DHT22;23372;52.050;4.810;2023-05-23T00:03:07;14.00;99.90
37528;DHT22;23372;52.050;4.810;2023-05-23T00:05:33;14.10;99.90
37528;DHT22;23372;52.050;4.810;2023-05-23T00:08:00;14.00;99.90
37528;DHT22;23372;52.050;4.810;2023-05-23T00:10:25;14.10;99.90
37528;DHT22;23372;52.050;4.810;2023-05-23T00:12:51;14.20;99.90
37528;DHT22;23372;52.050;4.810;2023-05-23T00:15:17;14.10;99.90
37528;DHT22;23372;52.050;4.810;2023-05-23T00:17:44;14.00;99.90
37528;DHT22;23372;52.050;4.810;2023-05-23T00:20:11;14.10;99.90
37528;DHT22;23372;52.050;4.810;2023-05-23T00:22:38;14.00;99.90
37528;DHT22;23372;52.050;4.810;2023-05-23T00:25:06;14.00;99.90
37528;DHT22;23372;52.050;4.810;2023-05-23T00:27:34;14.00;99.90
37528;DHT22;23372;52.050;4.810;2023-05-23T00:30:00;14.00;99.90
37528;DHT22;23372;52.050;4.810;2023-05-23T00:32:26;14.00;99.90
37528;DHT22;23372;52.050;4.810;2023-05-23T00:34:51;14.00;99.90
37528;DHT22;23372;52.050;4.810;2023-05-23T00:37:19;14.00;99.90
37528;DHT22;23372;52.050;4.810;2023-05-23T00:39:44;14.00;99.90
37528;DHT22;23372;52.050;4.810;2023-05-23T00:42:10;14.10;99.90
37528;DHT22;23372;52.050;4.810;2023-05-23T00:44:36;14.00;99.90
37528;DHT22;23372;52.050;4.810;2023-05-23T00:47:02;14.00;99.90
37528;DHT22;23372;52.050;4.810;2023-05-23T00:49:28;14.00;99.90
37528;DHT22;23372;52.050;4.810;2023-05-23T00:51:54;13.90;99.90
37528;DHT22;23372;52.050;4.810;2023-05-23T00:54:24;13.90;99.90
37528;DHT22;23372;52.050;4.810;2023-05-23T00:56:51;13.80;99.90
37528;DHT22;23372;52.050;4.810;2023-05-23T00:59:17;13.80;99.90
37528;DHT22;23372;52.050;4.810;2023-05-23T01:01:46;13.80;99.90
37528;DHT22;23372;52.050;4.810;2023-05-23T01:04:13;13.70;99.90
37528;DHT22;23372;52.050;4.810;2023-05-23T01:06:39;13.80;99.90
37528;DHT22;23372;52.050;4.810;2023-05-23T01:09:05;13.80;99.90
37528;DHT22;23372;52.050;4.810;2023-05-23T01:11:42;13.90;99.90
37528;DHT22;23372;52.050;4.810;2023-05-23T01:14:15;13.90;99.90
37528;DHT22;23372;52.050;4.810;2023-05-23T01:17:02;13.90;99.90
37528;DHT22;23372;52.050;4.810;2023-05-23T01:20:18;13.90;99.90
37528;DHT22;23372;52.050;4.810;2023-05-23T01:27:56;14.00;99.90
37528;DHT22;23372;52.050;4.810;2023-05-23T01:30:24;13.90;99.90
37528;DHT22;23372;52.050;4.810;2023-05-23T01:32:53;13.90;99.90
37528;DHT22;23372;52.050;4.810;2023-05-23T01:35:26;13.90;99.90
37528;DHT22;23372;52.050;4.810;2023-05-23T01:37:52;13.90;99.90
37528;DHT22;23372;52.050;4.810;2023-05-23T01:40:18;14.00;99.90
37528;DHT22;23372;52.050;4.810;2023-05-23T01:42:44;14.00;99.90
37528;DHT22;23372;52.050;4.810;2023-05-23T01:45:11;14.00;99.90
37528;DHT22;23372;52.050;4.810;2023-05-23T01:47:37;13.90;99.90
37528;DHT22;23372;52.050;4.810;2023-05-23T01:50:04;14.00;99.90
37528;DHT22;23372;52.050;4.810;2023-05-23T01:52:30;13.90;99.90
37528;DHT22;23372;52.050;4.810;2023-05-23T01:54:56;14.00;99.90
37528;DHT22;23372;52.050;4.810;2023-05-23T01:57:23;14.00;99.90
37528;DHT22;23372;52.050;4.810;2023-05-23T01:59:50;13.90;99.90
37528;DHT22;23372;52.050;4.810;2023-05-23T02:02:16;13.90;99.90
37528;DHT22;23372;52.050;4.810;2023-05-23T02:04:41;14.00;99.90
37528;DHT22;23372;52.050;4.810;2023-05-23T02:07:07;14.00;99.90
37528;DHT22;23372;52.050;4.810;2023-05-23T02:09:33;14.00;99.90
37528;DHT22;23372;52.050;4.810;2023-05-23T02:11:58;14.00;99.90
37528;DHT22;23372;52.050;4.810;2023-05-23T02:14:24;13.90;99.90
37528;DHT22;23372;52.050;4.810;2023-05-23T02:16:50;14.00;99.90
37528;DHT22;23372;52.050;4.810;2023-05-23T02:19:17;13.90;99.90
37528;DHT22;23372;52.050;4.810;2023-05-23T02:21:42;14.00;99.90
37528;DHT22;23372;52.050;4.810;2023-05-23T02:24:08;14.00;99.90
37528;DHT22;23372;52.050;4.810;2023-05-23T02:26:33;14.10;99.90
37528;DHT22;23372;52.050;4.810;2023-05-23T02:28:59;14.10;99.90
37528;DHT22;23372;52.050;4.810;2023-05-23T02:31:25;14.10;99.90
37528;DHT22;23372;52.050;4.810;2023-05-23T02:33:52;14.10;99.90
37528;DHT22;23372;52.050;4.810;2023-05-23T02:36:18;14.00;99.90
37528;DHT22;23372;52.050;4.810;2023-05-23T02:38:43;14.00;99.90
37528;DHT22;23372;52.050;4.810;2023-05-23T02:41:09;13.90;99.90
37528;DHT22;23372;52.050;4.810;2023-05-23T02:43:35;13.90;99.90
37528;DHT22;23372;52.050;4.810;2023-05-23T02:46:00;13.90;99.90
37528;DHT22;23372;52.050;4.810;2023-05-23T02:48:26;13.90;99.90
37528;DHT22;23372;52.050;4.810;2023-05-23T02:50:51;14.00;99.90
37528;DHT22;23372;52.050;4.810;2023-05-23T02:53:17;14.00;99.90
37528;DHT22;23372;52.050;4.810;2023-05-23T02:55:42;13.90;99.90
37528;DHT22;23372;52.050;4.810;2023-05-23T02:58:08;13.80;99.90
37528;DHT22;23372;52.050;4.810;2023-05-23T03:00:34;13.80;99.90
37528;DHT22;23372;52.050;4.810;2023-05-23T03:03:00;13.80;99.90
37528;DHT22;23372;52.050;4.810;2023-05-23T03:05:26;13.80;99.90
37528;DHT22;23372;52.050;4.810;2023-05-23T03:07:51;13.80;99.90
37528;DHT22;23372;52.050;4.810;2023-05-23T03:10:18;13.70;99.90
37528;DHT22;23372;52.050;4.810;2023-05-23T03:12:45;13.80;99.90
37528;DHT22;23372;52.050;4.810;2023-05-23T03:15:11;13.80;99.90
37528;DHT22;23372;52.050;4.810;2023-05-23T03:17:36;13.70;99.90
37528;DHT22;23372;52.050;4.810;2023-05-23T03:20:02;13.70;99.90
37528;DHT22;23372;52.050;4.810;2023-05-23T03:22:29;13.70;99.90
37528;DHT22;23372;52.050;4.810;2023-05-23T03:24:55;13.60;99.90
37528;DHT22;23372;52.050;4.810;2023-05-23T03:27:21;13.50;99.90
37528;DHT22;23372;52.050;4.810;2023-05-23T03:29:46;13.60;99.90
37528;DHT22;23372;52.050;4.810;2023-05-23T03:32:12;13.60;99.90
37528;DHT22;23372;52.050;4.810;2023-05-23T03:34:38;13.60;99.90
37528;DHT22;23372;52.050;4.810;2023-05-23T03:37:04;13.50;99.90
37528;DHT22;23372;52.050;4.810;2023-05-23T03:39:30;13.50;99.90
37528;DHT22;23372;52.050;4.810;2023-05-23T03:41:55;13.50;99.90
37528;DHT22;23372;52.050;4.810;2023-05-23T03:44:21;13.40;99.90
37528;DHT22;23372;52.050;4.810;2023-05-23T03:46:46;13.40;99.90
37528;DHT22;23372;52.050;4.810;2023-05-23T03:49:12;13.40;99.90
37528;DHT22;23372;52.050;4.810;2023-05-23T03:51:38;13.30;99.90
37528;DHT22;23372;52.050;4.810;2023-05-23T03:54:03;13.30;99.90
37528;DHT22;23372;52.050;4.810;2023-05-23T03:56:29;13.20;99.90
37528;DHT22;23372;52.050;4.810;2023-05-23T03:58:54;13.20;99.90
37528;DHT22;23372;52.050;4.810;2023-05-23T04:01:20;13.20;99.90
37528;DHT22;23372;52.050;4.810;2023-05-23T04:03:46;13.20;99.90
37528;DHT22;23372;52.050;4.810;2023-05-23T04:06:12;13.20;99.90
37528;DHT22;23372;52.050;4.810;2023-05-23T04:08:37;13.10;99.90
37528;DHT22;23372;52.050;4.810;2023-05-23T04:11:06;13.10;99.90
37528;DHT22;23372;52.050;4.810;2023-05-23T04:13:32;13.20;99.90
37528;DHT22;23372;52.050;4.810;2023-05-23T04:15:59;13.20;99.90
37528;DHT22;23372;52.050;4.810;2023-05-23T04:18:26;13.20;99.90
37528;DHT22;23372;52.050;4.810;2023-05-23T04:20:52;13.10;99.90
37528;DHT22;23372;52.050;4.810;2023-05-23T04:23:18;13.10;99.90
37528;DHT22;23372;52.050;4.810;2023-05-23T04:25:44;13.00;99.90
37528;DHT22;23372;52.050;4.810;2023-05-23T04:28:10;13.10;99.90
37528;DHT22;23372;52.050;4.810;2023-05-23T04:30:36;13.00;99.90
37528;DHT22;23372;52.050;4.810;2023-05-23T04:33:02;12.90;99.90
37528;DHT22;23372;52.050;4.810;2023-05-23T04:35:28;12.80;99.90
37528;DHT22;23372;52.050;4.810;2023-05-23T04:37:56;12.80;99.90
37528;DHT22;23372;52.050;4.810;2023-05-23T04:40:22;12.90;99.90
37528;DHT22;23372;52.050;4.810;2023-05-23T04:42:48;12.90;99.90
37528;DHT22;23372;52.050;4.810;2023-05-23T04:45:16;13.00;99.90
37528;DHT22;23372;52.050;4.810;2023-05-23T04:47:42;13.00;99.90
37528;DHT22;23372;52.050;4.810;2023-05-23T04:50:09;13.00;99.90
37528;DHT22;23372;52.050;4.810;2023-05-23T04:52:35;13.00;99.90
37528;DHT22;23372;52.050;4.810;2023-05-23T04:55:01;12.90;99.90
37528;DHT22;23372;52.050;4.810;2023-05-23T04:57:26;12.90;99.90
37528;DHT22;23372;52.050;4.810;2023-05-23T04:59:52;12.90;99.90
37528;DHT22;23372;52.050;4.810;2023-05-23T05:02:18;12.90;99.90
37528;DHT22;23372;52.050;4.810;2023-05-23T05:04:43;13.00;99.90
37528;DHT22;23372;52.050;4.810;2023-05-23T05:07:10;13.00;99.90
37528;DHT22;23372;52.050;4.810;2023-05-23T05:09:35;13.10;99.90
37528;DHT22;23372;52.050;4.810;2023-05-23T05:12:01;13.00;99.90
37528;DHT22;23372;52.050;4.810;2023-05-23T05:14:27;13.10;99.90
37528;DHT22;23372;52.050;4.810;2023-05-23T05:16:53;13.10;99.90
37528;DHT22;23372;52.050;4.810;2023-05-23T05:19:22;13.00;99.90
37528;DHT22;23372;52.050;4.810;2023-05-23T05:21:48;13.00;99.90
37528;DHT22;23372;52.050;4.810;2023-05-23T05:24:14;13.00;99.90
37528;DHT22;23372;52.050;4.810;2023-05-23T05:26:40;13.00;99.90
37528;DHT22;23372;52.050;4.810;2023-05-23T05:29:06;13.10;99.90
37528;DHT22;23372;52.050;4.810;2023-05-23T05:31:32;13.20;99.90
37528;DHT22;23372;52.050;4.810;2023-05-23T05:33:57;13.30;99.90
37528;DHT22;23372;52.050;4.810;2023-05-23T05:36:23;13.40;99.90
37528;DHT22;23372;52.050;4.810;2023-05-23T05:38:48;13.60;99.90
37528;DHT22;23372;52.050;4.810;2023-05-23T05:41:14;13.50;99.90
37528;DHT22;23372;52.050;4.810;2023-05-23T05:43:40;13.50;99.90
37528;DHT22;23372;52.050;4.810;2023-05-23T05:46:05;13.50;99.90
37528;DHT22;23372;52.050;4.810;2023-05-23T05:48:31;13.80;99.90
37528;DHT22;23372;52.050;4.810;2023-05-23T05:50:56;13.80;99.90
37528;DHT22;23372;52.050;4.810;2023-05-23T05:53:25;13.70;99.90
37528;DHT22;23372;52.050;4.810;2023-05-23T05:55:52;13.50;99.90
37528;DHT22;23372;52.050;4.810;2023-05-23T05:58:17;13.40;99.90
37528;DHT22;23372;52.050;4.810;2023-05-23T06:00:43;13.30;99.90
37528;DHT22;23372;52.050;4.810;2023-05-23T06:03:09;13.30;99.90
37528;DHT22;23372;52.050;4.810;2023-05-23T06:05:36;13.20;99.90
37528;DHT22;23372;52.050;4.810;2023-05-23T06:08:02;13.20;99.90
37528;DHT22;23372;52.050;4.810;2023-05-23T06:10:28;13.00;99.90
37528;DHT22;23372;52.050;4.810;2023-05-23T06:12:54;13.00;99.90
37528;DHT22;23372;52.050;4.810;2023-05-23T06:15:20;13.00;99.90
37528;DHT22;23372;52.050;4.810;2023-05-23T06:17:46;12.90;99.90
37528;DHT22;23372;52.050;4.810;2023-05-23T06:20:11;13.00;99.90
37528;DHT22;23372;52.050;4.810;2023-05-23T06:22:37;13.10;99.90
37528;DHT22;23372;52.050;4.810;2023-05-23T06:25:03;13.10;99.90
37528;DHT22;23372;52.050;4.810;2023-05-23T06:27:29;13.00;99.90
37528;DHT22;23372;52.050;4.810;2023-05-23T06:29:55;13.00;99.90
37528;DHT22;23372;52.050;4.810;2023-05-23T06:32:20;12.90;99.90
37528;DHT22;23372;52.050;4.810;2023-05-23T06:34:46;12.90;99.90
37528;DHT22;23372;52.050;4.810;2023-05-23T06:37:11;12.90;99.90
37528;DHT22;23372;52.050;4.810;2023-05-23T06:39:37;12.90;99.90
37528;DHT22;23372;52.050;4.810;2023-05-23T06:42:03;12.90;99.90
37528;DHT22;23372;52.050;4.810;2023-05-23T06:44:28;12.90;99.90
37528;DHT22;23372;52.050;4.810;2023-05-23T06:46:54;13.10;99.90
37528;DHT22;23372;52.050;4.810;2023-05-23T06:49:22;13.10;99.90
37528;DHT22;23372;52.050;4.810;2023-05-23T06:51:48;13.10;99.90
37528;DHT22;23372;52.050;4.810;2023-05-23T06:54:14;13.20;99.90
37528;DHT22;23372;52.050;4.810;2023-05-23T06:56:40;13.20;99.90
37528;DHT22;23372;52.050;4.810;2023-05-23T06:59:05;13.20;99.90
37528;DHT22;23372;52.050;4.810;2023-05-23T07:01:31;13.10;99.90
37528;DHT22;23372;52.050;4.810;2023-05-23T07:03:56;13.00;99.90
37528;DHT22;23372;52.050;4.810;2023-05-23T07:06:22;13.20;99.90
37528;DHT22;23372;52.050;4.810;2023-05-23T07:08:48;13.40;99.90
37528;DHT22;23372;52.050;4.810;2023-05-23T07:11:13;14.40;99.90
37528;DHT22;23372;52.050;4.810;2023-05-23T07:13:39;15.60;99.90
37528;DHT22;23372;52.050;4.810;2023-05-23T07:16:05;16.80;99.90
37528;DHT22;23372;52.050;4.810;2023-05-23T07:18:30;18.10;99.90
37528;DHT22;23372;52.050;4.810;2023-05-23T07:20:56;19.20;99.90
37528;DHT22;23372;52.050;4.810;2023-05-23T07:23:22;20.30;99.90
37528;DHT22;23372;52.050;4.810;2023-05-23T07:25:51;20.10;99.90
37528;DHT22;23372;52.050;4.810;2023-05-23T07:28:18;20.80;99.90
37528;DHT22;23372;52.050;4.810;2023-05-23T07:30:43;21.20;99.90
37528;DHT22;23372;52.050;4.810;2023-05-23T07:33:09;21.80;99.90
37528;DHT22;23372;52.050;4.810;2023-05-23T07:35:35;21.50;99.90
37528;DHT22;23372;52.050;4.810;2023-05-23T07:38:00;22.70;99.90
37528;DHT22;23372;52.050;4.810;2023-05-23T07:40:26;23.30;99.90
37528;DHT22;23372;52.050;4.810;2023-05-23T07:42:51;23.10;99.90
37528;DHT22;23372;52.050;4.810;2023-05-23T07:45:18;22.00;99.90
37528;DHT22;23372;52.050;4.810;2023-05-23T07:47:44;21.30;99.90
37528;DHT22;23372;52.050;4.810;2023-05-23T07:50:09;21.30;99.90
37528;DHT22;23372;52.050;4.810;2023-05-23T07:52:35;20.30;99.90
37528;DHT22;23372;52.050;4.810;2023-05-23T07:55:01;19.20;99.90
37528;DHT22;23372;52.050;4.810;2023-05-23T07:57:26;18.60;99.90
37528;DHT22;23372;52.050;4.810;2023-05-23T07:59:52;18.50;99.90
37528;DHT22;23372;52.050;4.810;2023-05-23T08:02:19;18.20;99.90
37528;DHT22;23372;52.050;4.810;2023-05-23T08:04:45;17.70;99.90
37528;DHT22;23372;52.050;4.810;2023-05-23T08:07:11;18.40;99.90
37528;DHT22;23372;52.050;4.810;2023-05-23T08:09:40;19.50;99.90
37528;DHT22;23372;52.050;4.810;2023-05-23T08:12:07;20.10;99.90
37528;DHT22;23372;52.050;4.810;2023-05-23T08:14:34;20.80;99.90
37528;DHT22;23372;52.050;4.810;2023-05-23T08:17:00;21.00;99.90
37528;DHT22;23372;52.050;4.810;2023-05-23T08:19:26;20.20;99.90
37528;DHT22;23372;52.050;4.810;2023-05-23T08:21:52;19.50;99.90
37528;DHT22;23372;52.050;4.810;2023-05-23T08:24:18;18.70;99.90
37528;DHT22;23372;52.050;4.810;2023-05-23T08:26:44;17.80;99.90
37528;DHT22;23372;52.050;4.810;2023-05-23T08:29:10;17.70;99.90
37528;DHT22;23372;52.050;4.810;2023-05-23T08:31:36;18.20;99.90
37528;DHT22;23372;52.050;4.810;2023-05-23T08:34:01;18.70;99.90
37528;DHT22;23372;52.050;4.810;2023-05-23T08:36:27;19.10;99.90
37528;DHT22;23372;52.050;4.810;2023-05-23T08:38:53;19.20;99.90
37528;DHT22;23372;52.050;4.810;2023-05-23T08:41:22;19.00;99.90
37528;DHT22;23372;52.050;4.810;2023-05-23T08:43:49;19.00;99.90
37528;DHT22;23372;52.050;4.810;2023-05-23T08:46:15;18.90;99.90
37528;DHT22;23372;52.050;4.810;2023-05-23T08:48:42;18.50;99.90
37528;DHT22;23372;52.050;4.810;2023-05-23T08:51:13;17.60;99.90
37528;DHT22;23372;52.050;4.810;2023-05-23T08:53:42;17.00;99.90
37528;DHT22;23372;52.050;4.810;2023-05-23T08:56:11;17.10;99.90
37528;DHT22;23372;52.050;4.810;2023-05-23T08:58:38;17.20;99.90
37528;DHT22;23372;52.050;4.810;2023-05-23T09:01:05;17.50;99.90
37528;DHT22;23372;52.050;4.810;2023-05-23T09:03:32;17.90;99.90
37528;DHT22;23372;52.050;4.810;2023-05-23T09:05:58;18.10;99.90
37528;DHT22;23372;52.050;4.810;2023-05-23T09:08:24;18.40;99.90
37528;DHT22;23372;52.050;4.810;2023-05-23T09:10:50;18.40;99.90
37528;DHT22;23372;52.050;4.810;2023-05-23T09:13:16;18.60;99.90
37528;DHT22;23372;52.050;4.810;2023-05-23T09:16:01;18.70;99.90
37528;DHT22;23372;52.050;4.810;2023-05-23T09:18:40;19.20;99.90
37528;DHT22;23372;52.050;4.810;2023-05-23T09:21:11;19.00;99.90
37528;DHT22;23372;52.050;4.810;2023-05-23T09:23:38;19.20;99.90
37528;DHT22;23372;52.050;4.810;2023-05-23T09:26:07;19.10;99.90
37528;DHT22;23372;52.050;4.810;2023-05-23T09:28:34;18.60;99.90
37528;DHT22;23372;52.050;4.810;2023-05-23T09:31:00;18.70;99.90
37528;DHT22;23372;52.050;4.810;2023-05-23T09:33:39;18.70;99.90
37528;DHT22;23372;52.050;4.810;2023-05-23T09:36:05;18.20;99.90
37528;DHT22;23372;52.050;4.810;2023-05-23T09:38:36;18.10;99.90
37528;DHT22;23372;52.050;4.810;2023-05-23T09:41:02;18.00;99.90
37528;DHT22;23372;52.050;4.810;2023-05-23T09:43:28;17.90;99.90
37528;DHT22;23372;52.050;4.810;2023-05-23T09:45:54;17.90;99.90
37528;DHT22;23372;52.050;4.810;2023-05-23T09:48:27;18.00;99.90
37528;DHT22;23372;52.050;4.810;2023-05-23T09:50:55;18.00;99.90
37528;DHT22;23372;52.050;4.810;2023-05-23T09:53:20;18.00;99.90
37528;DHT22;23372;52.050;4.810;2023-05-23T09:55:51;17.90;99.90
37528;DHT22;23372;52.050;4.810;2023-05-23T09:58:19;17.80;99.90
37528;DHT22;23372;52.050;4.810;2023-05-23T10:00:48;17.60;99.90
37528;DHT22;23372;52.050;4.810;2023-05-23T10:03:15;17.30;99.90
37528;DHT22;23372;52.050;4.810;2023-05-23T10:05:49;17.80;99.90
37528;DHT22;23372;52.050;4.810;2023-05-23T10:13:26;19.20;99.90
37528;DHT22;23372;52.050;4.810;2023-05-23T10:15:58;18.50;99.90
37528;DHT22;23372;52.050;4.810;2023-05-23T10:18:27;18.20;99.90
37528;DHT22;23372;52.050;4.810;2023-05-23T10:20:58;18.20;99.90
37528;DHT22;23372;52.050;4.810;2023-05-23T10:23:28;18.10;99.90
37528;DHT22;23372;52.050;4.810;2023-05-23T10:25:55;18.30;99.90
37528;DHT22;23372;52.050;4.810;2023-05-23T10:28:20;18.40;99.90
37528;DHT22;23372;52.050;4.810;2023-05-23T10:30:46;18.30;99.90
37528;DHT22;23372;52.050;4.810;2023-05-23T10:33:13;18.00;99.90
37528;DHT22;23372;52.050;4.810;2023-05-23T10:41:05;18.90;99.90
37528;DHT22;23372;52.050;4.810;2023-05-23T10:46:07;19.60;99.90
37528;DHT22;23372;52.050;4.810;2023-05-23T10:48:43;19.50;99.90
37528;DHT22;23372;52.050;4.810;2023-05-23T10:51:13;19.10;99.90
37528;DHT22;23372;52.050;4.810;2023-05-23T10:53:44;18.70;99.90
37528;DHT22;23372;52.050;4.810;2023-05-23T10:56:21;18.50;99.90
37528;DHT22;23372;52.050;4.810;2023-05-23T10:58:54;18.10;99.90
37528;DHT22;23372;52.050;4.810;2023-05-23T11:01:20;17.80;99.90
37528;DHT22;23372;52.050;4.810;2023-05-23T11:06:39;17.90;99.90
37528;DHT22;23372;52.050;4.810;2023-05-23T11:09:14;17.80;99.90
37528;DHT22;23372;52.050;4.810;2023-05-23T11:14:16;17.20;99.90
37528;DHT22;23372;52.050;4.810;2023-05-23T11:16:43;17.50;99.90
37528;DHT22;23372;52.050;4.810;2023-05-23T11:21:43;19.30;99.90
37528;DHT22;23372;52.050;4.810;2023-05-23T11:24:09;19.70;99.90
37528;DHT22;23372;52.050;4.810;2023-05-23T11:26:35;20.00;99.90
37528;DHT22;23372;52.050;4.810;2023-05-23T11:29:00;20.10;99.90
37528;DHT22;23372;52.050;4.810;2023-05-23T11:31:28;20.10;99.90
37528;DHT22;23372;52.050;4.810;2023-05-23T11:33:54;19.80;99.90
37528;DHT22;23372;52.050;4.810;2023-05-23T11:36:21;19.10;99.90
37528;DHT22;23372;52.050;4.810;2023-05-23T11:38:48;19.00;99.90
37528;DHT22;23372;52.050;4.810;2023-05-23T11:41:14;18.50;99.90
37528;DHT22;23372;52.050;4.810;2023-05-23T11:43:49;18.90;99.90
37528;DHT22;23372;52.050;4.810;2023-05-23T11:46:15;18.70;99.90
37528;DHT22;23372;52.050;4.810;2023-05-23T11:48:47;19.00;99.90
37528;DHT22;23372;52.050;4.810;2023-05-23T11:51:14;18.80;99.90
37528;DHT22;23372;52.050;4.810;2023-05-23T11:53:40;19.00;99.90
37528;DHT22;23372;52.050;4.810;2023-05-23T11:56:06;19.10;99.90
37528;DHT22;23372;52.050;4.810;2023-05-23T11:58:38;19.40;99.90
37528;DHT22;23372;52.050;4.810;2023-05-23T12:01:09;19.20;99.90
37528;DHT22;23372;52.050;4.810;2023-05-23T12:03:44;18.80;99.90
37528;DHT22;23372;52.050;4.810;2023-05-23T12:06:20;18.50;99.90
37528;DHT22;23372;52.050;4.810;2023-05-23T12:08:47;18.30;99.90
37528;DHT22;23372;52.050;4.810;2023-05-23T12:11:13;18.50;99.90
37528;DHT22;23372;52.050;4.810;2023-05-23T12:13:40;19.20;99.90
37528;DHT22;23372;52.050;4.810;2023-05-23T12:16:06;19.80;99.90
37528;DHT22;23372;52.050;4.810;2023-05-23T12:18:32;20.50;99.90
37528;DHT22;23372;52.050;4.810;2023-05-23T12:21:02;20.10;99.90
37528;DHT22;23372;52.050;4.810;2023-05-23T12:23:30;20.20;99.90
37528;DHT22;23372;52.050;4.810;2023-05-23T12:25:57;19.90;99.90
37528;DHT22;23372;52.050;4.810;2023-05-23T12:28:36;19.30;99.90
37528;DHT22;23372;52.050;4.810;2023-05-23T12:31:09;19.00;99.90
37528;DHT22;23372;52.050;4.810;2023-05-23T12:33:38;18.50;99.90
37528;DHT22;23372;52.050;4.810;2023-05-23T12:36:04;18.20;99.90
37528;DHT22;23372;52.050;4.810;2023-05-23T12:38:32;18.50;99.90
37528;DHT22;23372;52.050;4.810;2023-05-23T12:41:31;18.80;99.90
37528;DHT22;23372;52.050;4.810;2023-05-23T12:43:58;19.00;99.90
37528;DHT22;23372;52.050;4.810;2023-05-23T12:46:25;19.20;99.90
37528;DHT22;23372;52.050;4.810;2023-05-23T12:48:51;18.90;99.90
37528;DHT22;23372;52.050;4.810;2023-05-23T12:51:17;19.20;99.90
37528;DHT22;23372;52.050;4.810;2023-05-23T12:53:43;18.90;99.90
37528;DHT22;23372;52.050;4.810;2023-05-23T12:56:09;18.90;99.90
37528;DHT22;23372;52.050;4.810;2023-05-23T12:58:35;19.40;99.90
37528;DHT22;23372;52.050;4.810;2023-05-23T13:01:01;19.70;99.90
37528;DHT22;23372;52.050;4.810;2023-05-23T13:03:27;19.50;99.90
37528;DHT22;23372;52.050;4.810;2023-05-23T13:05:55;19.30;99.90
37528;DHT22;23372;52.050;4.810;2023-05-23T13:08:25;19.40;99.90
37528;DHT22;23372;52.050;4.810;2023-05-23T13:10:53;19.60;99.90
37528;DHT22;23372;52.050;4.810;2023-05-23T13:13:18;19.30;99.90
37528;DHT22;23372;52.050;4.810;2023-05-23T13:15:44;18.80;99.90
37528;DHT22;23372;52.050;4.810;2023-05-23T13:18:10;18.60;99.90
37528;DHT22;23372;52.050;4.810;2023-05-23T13:20:35;18.30;99.90
37528;DHT22;23372;52.050;4.810;2023-05-23T13:23:01;18.10;99.90
37528;DHT22;23372;52.050;4.810;2023-05-23T13:25:27;18.00;99.90
37528;DHT22;23372;52.050;4.810;2023-05-23T13:27:53;18.10;99.90
37528;DHT22;23372;52.050;4.810;2023-05-23T13:30:19;18.40;99.90
37528;DHT22;23372;52.050;4.810;2023-05-23T13:32:45;18.20;99.90
37528;DHT22;23372;52.050;4.810;2023-05-23T13:35:11;18.00;99.90
37528;DHT22;23372;52.050;4.810;2023-05-23T13:37:37;18.00;99.90
37528;DHT22;23372;52.050;4.810;2023-05-23T13:40:03;17.90;99.90
37528;DHT22;23372;52.050;4.810;2023-05-23T13:42:29;17.90;99.90
37528;DHT22;23372;52.050;4.810;2023-05-23T13:44:55;18.20;99.90
37528;DHT22;23372;52.050;4.810;2023-05-23T13:47:20;18.90;99.90
37528;DHT22;23372;52.050;4.810;2023-05-23T13:49:49;19.50;99.90
37528;DHT22;23372;52.050;4.810;2023-05-23T13:52:15;19.80;99.90
37528;DHT22;23372;52.050;4.810;2023-05-23T13:54:40;20.10;99.90
37528;DHT22;23372;52.050;4.810;2023-05-23T13:57:06;19.70;99.90
37528;DHT22;23372;52.050;4.810;2023-05-23T13:59:32;19.10;99.90
37528;DHT22;23372;52.050;4.810;2023-05-23T14:01:58;18.60;99.90
37528;DHT22;23372;52.050;4.810;2023-05-23T14:04:23;18.30;99.90
37528;DHT22;23372;52.050;4.810;2023-05-23T14:06:49;18.10;99.90
37528;DHT22;23372;52.050;4.810;2023-05-23T14:09:15;18.10;99.90
37528;DHT22;23372;52.050;4.810;2023-05-23T14:11:42;18.50;99.90
37528;DHT22;23372;52.050;4.810;2023-05-23T14:14:08;19.20;99.90
37528;DHT22;23372;52.050;4.810;2023-05-23T14:16:33;19.20;99.90
37528;DHT22;23372;52.050;4.810;2023-05-23T14:18:59;19.00;99.90
37528;DHT22;23372;52.050;4.810;2023-05-23T14:21:24;18.60;99.90
37528;DHT22;23372;52.050;4.810;2023-05-23T14:23:50;18.00;99.90
37528;DHT22;23372;52.050;4.810;2023-05-23T14:26:15;17.90;99.90
37528;DHT22;23372;52.050;4.810;2023-05-23T14:28:41;17.60;99.90
37528;DHT22;23372;52.050;4.810;2023-05-23T14:31:07;18.20;99.90
37528;DHT22;23372;52.050;4.810;2023-05-23T14:33:32;18.60;99.90
37528;DHT22;23372;52.050;4.810;2023-05-23T14:35:59;19.10;99.90
37528;DHT22;23372;52.050;4.810;2023-05-23T14:38:25;19.20;99.90
37528;DHT22;23372;52.050;4.810;2023-05-23T14:40:51;19.50;99.90
37528;DHT22;23372;52.050;4.810;2023-05-23T14:43:18;19.90;99.90
37528;DHT22;23372;52.050;4.810;2023-05-23T14:45:43;20.10;99.90
37528;DHT22;23372;52.050;4.810;2023-05-23T14:48:09;20.10;99.90
37528;DHT22;23372;52.050;4.810;2023-05-23T14:50:35;19.50;99.90
37528;DHT22;23372;52.050;4.810;2023-05-23T14:53:00;19.40;99.90
37528;DHT22;23372;52.050;4.810;2023-05-23T14:55:26;18.50;99.90
37528;DHT22;23372;52.050;4.810;2023-05-23T14:57:52;18.50;99.90
37528;DHT22;23372;52.050;4.810;2023-05-23T15:00:17;17.90;99.90
37528;DHT22;23372;52.050;4.810;2023-05-23T15:02:43;17.20;99.90
37528;DHT22;23372;52.050;4.810;2023-05-23T15:05:09;16.90;99.90
37528;DHT22;23372;52.050;4.810;2023-05-23T15:07:35;16.50;99.90
37528;DHT22;23372;52.050;4.810;2023-05-23T15:10:06;16.50;99.90
37528;DHT22;23372;52.050;4.810;2023-05-23T15:12:32;16.60;99.90
37528;DHT22;23372;52.050;4.810;2023-05-23T15:14:58;16.90;99.90
37528;DHT22;23372;52.050;4.810;2023-05-23T15:17:27;17.30;99.90
37528;DHT22;23372;52.050;4.810;2023-05-23T15:19:53;17.50;99.90
37528;DHT22;23372;52.050;4.810;2023-05-23T15:22:18;17.20;99.90
37528;DHT22;23372;52.050;4.810;2023-05-23T15:24:44;17.30;99.90
37528;DHT22;23372;52.050;4.810;2023-05-23T15:27:10;17.50;99.90
37528;DHT22;23372;52.050;4.810;2023-05-23T15:29:35;17.40;99.90
37528;DHT22;23372;52.050;4.810;2023-05-23T15:32:04;17.00;99.90
37528;DHT22;23372;52.050;4.810;2023-05-23T15:34:30;17.20;99.90
37528;DHT22;23372;52.050;4.810;2023-05-23T15:36:55;17.50;99.90
37528;DHT22;23372;52.050;4.810;2023-05-23T15:39:21;17.70;99.90
37528;DHT22;23372;52.050;4.810;2023-05-23T15:41:47;17.90;99.90
37528;DHT22;23372;52.050;4.810;2023-05-23T15:44:12;18.00;99.90
37528;DHT22;23372;52.050;4.810;2023-05-23T15:46:42;18.10;99.90
37528;DHT22;23372;52.050;4.810;2023-05-23T15:49:07;18.00;99.90
37528;DHT22;23372;52.050;4.810;2023-05-23T15:51:33;17.60;99.90
37528;DHT22;23372;52.050;4.810;2023-05-23T15:54:00;17.80;99.90